Porter, North Carolina
Current Conditions -  °F | °C
As of 1:15 AM on Monday 22 Dec 2014 (Local Time) from KVUJ Reporting Station
Drizzle Drizzle  
Wind Chill: 40°   Ceiling: 2800
Heat Index: 43°   Visibility: 7mi
Dew Point: 38°   Wind: 6mph
Humidity: 82%   Direction: 40°NE
Pressure: 30.21"   Gusts: NA
Location:  35.2152°N, 80.1663°W
Report Text: KVUJ 220615Z AUTO 04005KT 7SM DZ OVC028 06/04 A3021 RMK AO2 T00630035
Loading
Personal Weather Stations






























Interactive Weather Map New forecast layout! Learn more

10-Day Weather Forecast

Advertisements
Track Severe Weather on mobile